sensor_id;sensor_type;location;lat;lon;timestamp;pressure;altitude;pressure_sealevel;temperature;humidity
40730;BME280;26418;50.070;8.436;2023-07-31T00:00:38;99816.22;;;17.62;74.25
40730;BME280;26418;50.070;8.436;2023-07-31T00:03:03;99811.22;;;17.64;74.32
40730;BME280;26418;50.070;8.436;2023-07-31T00:05:29;99810.41;;;17.63;74.57
40730;BME280;26418;50.070;8.436;2023-07-31T00:07:55;99807.25;;;17.61;74.75
40730;BME280;26418;50.070;8.436;2023-07-31T00:10:20;99814.53;;;17.57;74.95
40730;BME280;26418;50.070;8.436;2023-07-31T00:12:46;99809.53;;;17.59;75.33
40730;BME280;26418;50.070;8.436;2023-07-31T00:15:13;99815.78;;;17.59;75.53
40730;BME280;26418;50.070;8.436;2023-07-31T00:17:39;99805.19;;;17.58;75.95
40730;BME280;26418;50.070;8.436;2023-07-31T00:20:05;99824.34;;;17.58;75.87
40730;BME280;26418;50.070;8.436;2023-07-31T00:22:31;99802.38;;;17.54;76.17
40730;BME280;26418;50.070;8.436;2023-07-31T00:24:57;99805.09;;;17.54;76.33
40730;BME280;26418;50.070;8.436;2023-07-31T00:27:23;99792.13;;;17.51;76.33
40730;BME280;26418;50.070;8.436;2023-07-31T00:29:48;99788.53;;;17.47;76.67
40730;BME280;26418;50.070;8.436;2023-07-31T00:32:14;99788.06;;;17.45;77.01
40730;BME280;26418;50.070;8.436;2023-07-31T00:34:39;99784.09;;;17.42;76.85
40730;BME280;26418;50.070;8.436;2023-07-31T00:37:05;99785.16;;;17.38;77.10
40730;BME280;26418;50.070;8.436;2023-07-31T00:39:31;99787.88;;;17.38;77.35
40730;BME280;26418;50.070;8.436;2023-07-31T00:41:57;99793.72;;;17.36;77.42
40730;BME280;26418;50.070;8.436;2023-07-31T00:44:22;99790.53;;;17.34;77.63
40730;BME280;26418;50.070;8.436;2023-07-31T00:46:48;99775.94;;;17.30;77.87
40730;BME280;26418;50.070;8.436;2023-07-31T00:49:14;99797.13;;;17.33;77.91
40730;BME280;26418;50.070;8.436;2023-07-31T00:51:40;99788.84;;;17.29;78.23
40730;BME280;26418;50.070;8.436;2023-07-31T00:54:06;99791.13;;;17.27;78.34
40730;BME280;26418;50.070;8.436;2023-07-31T00:56:32;99791.47;;;17.26;78.51
40730;BME280;26418;50.070;8.436;2023-07-31T00:58:58;99788.28;;;17.24;78.50
40730;BME280;26418;50.070;8.436;2023-07-31T01:01:23;99788.28;;;17.24;78.58
40730;BME280;26418;50.070;8.436;2023-07-31T01:03:50;99775.75;;;17.23;78.73
40730;BME280;26418;50.070;8.436;2023-07-31T01:09:47;99769.06;;;17.20;78.76
40730;BME280;26418;50.070;8.436;2023-07-31T01:12:16;99767.91;;;17.21;79.22
40730;BME280;26418;50.070;8.436;2023-07-31T01:15:13;99770.19;;;17.19;79.29
40730;BME280;26418;50.070;8.436;2023-07-31T01:17:41;99771.69;;;17.17;79.22
40730;BME280;26418;50.070;8.436;2023-07-31T01:20:27;99778.31;;;17.16;79.30
40730;BME280;26418;50.070;8.436;2023-07-31T01:26:03;99778.97;;;17.12;79.48
40730;BME280;26418;50.070;8.436;2023-07-31T01:31:07;99764.81;;;17.07;79.60
40730;BME280;26418;50.070;8.436;2023-07-31T01:33:34;99767.63;;;17.10;79.91
40730;BME280;26418;50.070;8.436;2023-07-31T01:36:00;99765.22;;;17.09;79.60
40730;BME280;26418;50.070;8.436;2023-07-31T01:38:26;99763.31;;;17.09;79.59
40730;BME280;26418;50.070;8.436;2023-07-31T01:40:52;99749.53;;;17.06;79.54
40730;BME280;26418;50.070;8.436;2023-07-31T01:43:19;99740.13;;;17.03;79.62
40730;BME280;26418;50.070;8.436;2023-07-31T01:45:44;99735.44;;;17.04;79.35
40730;BME280;26418;50.070;8.436;2023-07-31T01:48:10;99727.59;;;17.02;79.25
40730;BME280;26418;50.070;8.436;2023-07-31T01:50:35;99736.47;;;16.99;79.11
40730;BME280;26418;50.070;8.436;2023-07-31T01:53:01;99732.59;;;17.00;79.26
40730;BME280;26418;50.070;8.436;2023-07-31T01:55:27;99733.47;;;17.04;79.39
40730;BME280;26418;50.070;8.436;2023-07-31T01:57:52;99727.25;;;17.04;79.28
40730;BME280;26418;50.070;8.436;2023-07-31T02:00:18;99722.91;;;17.03;79.46
40730;BME280;26418;50.070;8.436;2023-07-31T02:02:43;99726.88;;;17.05;79.22
40730;BME280;26418;50.070;8.436;2023-07-31T02:05:09;99721.88;;;17.07;78.75
40730;BME280;26418;50.070;8.436;2023-07-31T02:07:35;99726.66;;;17.10;78.40
40730;BME280;26418;50.070;8.436;2023-07-31T02:10:00;99719.22;;;17.11;77.58
40730;BME280;26418;50.070;8.436;2023-07-31T02:12:26;99726.03;;;17.17;76.99
40730;BME280;26418;50.070;8.436;2023-07-31T02:14:51;99715.81;;;17.14;76.72
40730;BME280;26418;50.070;8.436;2023-07-31T02:17:17;99714.75;;;17.19;76.10
40730;BME280;26418;50.070;8.436;2023-07-31T02:19:43;99722.25;;;17.22;75.62
40730;BME280;26418;50.070;8.436;2023-07-31T02:22:08;99718.81;;;17.25;75.67
40730;BME280;26418;50.070;8.436;2023-07-31T02:24:34;99720.03;;;17.27;74.95
40730;BME280;26418;50.070;8.436;2023-07-31T02:26:59;99720.59;;;17.33;74.11
40730;BME280;26418;50.070;8.436;2023-07-31T02:29:25;99721.81;;;17.36;73.90
40730;BME280;26418;50.070;8.436;2023-07-31T02:31:50;99715.47;;;17.32;73.85
40730;BME280;26418;50.070;8.436;2023-07-31T02:34:16;99714.44;;;17.36;73.58
40730;BME280;26418;50.070;8.436;2023-07-31T02:36:41;99715.31;;;17.40;73.58
40730;BME280;26418;50.070;8.436;2023-07-31T02:39:07;99715.31;;;17.40;72.86
40730;BME280;26418;50.070;8.436;2023-07-31T02:41:32;99716.53;;;17.43;72.36
40730;BME280;26418;50.070;8.436;2023-07-31T02:43:58;99716.19;;;17.44;72.50
40730;BME280;26418;50.070;8.436;2023-07-31T02:46:23;99719.72;;;17.45;73.01
40730;BME280;26418;50.070;8.436;2023-07-31T02:48:50;99715.66;;;17.39;72.89
40730;BME280;26418;50.070;8.436;2023-07-31T02:51:16;99714.16;;;17.41;71.91
40730;BME280;26418;50.070;8.436;2023-07-31T02:53:42;99726.16;;;17.53;70.48
40730;BME280;26418;50.070;8.436;2023-07-31T02:56:07;99730.50;;;17.54;70.16
40730;BME280;26418;50.070;8.436;2023-07-31T02:58:33;99736.75;;;17.54;70.65
40730;BME280;26418;50.070;8.436;2023-07-31T03:00:59;99730.13;;;17.55;71.06
40730;BME280;26418;50.070;8.436;2023-07-31T03:03:24;99721.94;;;17.55;71.47
40730;BME280;26418;50.070;8.436;2023-07-31T03:05:50;99728.19;;;17.56;72.05
40730;BME280;26418;50.070;8.436;2023-07-31T03:08:16;99711.25;;;17.50;72.66
40730;BME280;26418;50.070;8.436;2023-07-31T03:10:41;99700.13;;;17.43;73.13
40730;BME280;26418;50.070;8.436;2023-07-31T03:13:07;99693.78;;;17.39;73.50
40730;BME280;26418;50.070;8.436;2023-07-31T03:15:32;99715.06;;;17.46;74.07
40730;BME280;26418;50.070;8.436;2023-07-31T03:17:58;99711.06;;;17.43;74.09
40730;BME280;26418;50.070;8.436;2023-07-31T03:20:23;99717.25;;;17.40;74.33
40730;BME280;26418;50.070;8.436;2023-07-31T03:22:49;99716.03;;;17.37;74.70
40730;BME280;26418;50.070;8.436;2023-07-31T03:25:14;99710.81;;;17.32;74.06
40730;BME280;26418;50.070;8.436;2023-07-31T03:27:40;99711.59;;;17.33;74.14
40730;BME280;26418;50.070;8.436;2023-07-31T03:30:06;99702.31;;;17.21;74.62
40730;BME280;26418;50.070;8.436;2023-07-31T03:32:32;99719.81;;;17.33;74.48
40730;BME280;26418;50.070;8.436;2023-07-31T03:34:58;99717.41;;;17.31;74.07
40730;BME280;26418;50.070;8.436;2023-07-31T03:37:23;99728.44;;;17.35;74.29
40730;BME280;26418;50.070;8.436;2023-07-31T03:39:49;99727.66;;;17.34;74.41
40730;BME280;26418;50.070;8.436;2023-07-31T03:42:14;99718.81;;;17.25;74.55
40730;BME280;26418;50.070;8.436;2023-07-31T03:44:49;99733.13;;;17.34;74.71
40730;BME280;26418;50.070;8.436;2023-07-31T03:47:15;99736.13;;;17.29;74.99
40730;BME280;26418;50.070;8.436;2023-07-31T03:49:40;99730.75;;;17.33;75.27
40730;BME280;26418;50.070;8.436;2023-07-31T03:52:06;99726.84;;;17.34;75.57
40730;BME280;26418;50.070;8.436;2023-07-31T03:54:32;99709.13;;;17.27;75.74
40730;BME280;26418;50.070;8.436;2023-07-31T03:56:58;99709.56;;;17.29;75.69
40730;BME280;26418;50.070;8.436;2023-07-31T03:59:23;99715.22;;;17.37;75.62
40730;BME280;26418;50.070;8.436;2023-07-31T04:01:49;99716.34;;;17.36;75.73
40730;BME280;26418;50.070;8.436;2023-07-31T04:04:14;99723.50;;;17.40;75.72
40730;BME280;26418;50.070;8.436;2023-07-31T04:06:40;99710.72;;;17.44;75.34
40730;BME280;26418;50.070;8.436;2023-07-31T04:09:05;99714.25;;;17.45;75.22
40730;BME280;26418;50.070;8.436;2023-07-31T04:11:31;99713.09;;;17.46;75.07
40730;BME280;26418;50.070;8.436;2023-07-31T04:13:56;99709.78;;;17.53;74.59
40730;BME280;26418;50.070;8.436;2023-07-31T04:16:22;99711.44;;;17.57;74.69
40730;BME280;26418;50.070;8.436;2023-07-31T04:18:47;99700.50;;;17.57;74.69
40730;BME280;26418;50.070;8.436;2023-07-31T04:21:13;99701.75;;;17.60;74.76
40730;BME280;26418;50.070;8.436;2023-07-31T04:23:38;99695.91;;;17.62;74.83
40730;BME280;26418;50.070;8.436;2023-07-31T04:26:04;99699.78;;;17.60;75.10
40730;BME280;26418;50.070;8.436;2023-07-31T04:28:30;99693.16;;;17.62;75.06
40730;BME280;26418;50.070;8.436;2023-07-31T04:30:57;99700.31;;;17.66;74.72
40730;BME280;26418;50.070;8.436;2023-07-31T04:33:22;99692.09;;;17.66;74.03
40730;BME280;26418;50.070;8.436;2023-07-31T04:35:57;99675.09;;;17.57;74.01
40730;BME280;26418;50.070;8.436;2023-07-31T04:38:22;99689.38;;;17.66;73.93
40730;BME280;26418;50.070;8.436;2023-07-31T04:40:48;99673.34;;;17.65;73.96
40730;BME280;26418;50.070;8.436;2023-07-31T04:43:14;99668.56;;;17.62;73.75
40730;BME280;26418;50.070;8.436;2023-07-31T04:45:41;99679.94;;;17.64;73.68
40730;BME280;26418;50.070;8.436;2023-07-31T04:48:07;99685.84;;;17.66;73.50
40730;BME280;26418;50.070;8.436;2023-07-31T04:50:32;99687.44;;;17.67;73.48
40730;BME280;26418;50.070;8.436;2023-07-31T04:52:58;99683.81;;;17.63;72.87
40730;BME280;26418;50.070;8.436;2023-07-31T04:55:23;99683.81;;;17.63;72.85
40730;BME280;26418;50.070;8.436;2023-07-31T04:57:49;99684.97;;;17.62;73.39
40730;BME280;26418;50.070;8.436;2023-07-31T05:00:15;99679.25;;;17.67;73.46
40730;BME280;26418;50.070;8.436;2023-07-31T05:02:40;99689.09;;;17.71;73.20
40730;BME280;26418;50.070;8.436;2023-07-31T05:05:06;99682.47;;;17.72;73.26
40730;BME280;26418;50.070;8.436;2023-07-31T05:07:32;99684.44;;;17.72;72.31
40730;BME280;26418;50.070;8.436;2023-07-31T05:09:57;99689.47;;;17.70;72.36
40730;BME280;26418;50.070;8.436;2023-07-31T05:12:23;99687.94;;;17.72;72.11
40730;BME280;26418;50.070;8.436;2023-07-31T05:14:48;99693.41;;;17.72;72.41
40730;BME280;26418;50.070;8.436;2023-07-31T05:17:14;99690.28;;;17.70;72.35
40730;BME280;26418;50.070;8.436;2023-07-31T05:19:39;99680.03;;;17.67;72.04
40730;BME280;26418;50.070;8.436;2023-07-31T05:22:05;99679.81;;;17.76;72.29
40730;BME280;26418;50.070;8.436;2023-07-31T05:24:31;99692.53;;;17.84;71.66
40730;BME280;26418;50.070;8.436;2023-07-31T05:26:56;99686.63;;;17.82;71.74
40730;BME280;26418;50.070;8.436;2023-07-31T05:29:22;99698.44;;;17.86;71.62
40730;BME280;26418;50.070;8.436;2023-07-31T05:31:47;99694.13;;;17.85;71.41
40730;BME280;26418;50.070;8.436;2023-07-31T05:34:13;99693.78;;;17.87;71.47
40730;BME280;26418;50.070;8.436;2023-07-31T05:36:39;99693.41;;;17.88;71.47
40730;BME280;26418;50.070;8.436;2023-07-31T05:39:04;99686.44;;;17.91;71.29
40730;BME280;26418;50.070;8.436;2023-07-31T05:41:33;99688.38;;;17.90;70.50
40730;BME280;26418;50.070;8.436;2023-07-31T05:43:59;99680.25;;;17.94;70.81
40730;BME280;26418;50.070;8.436;2023-07-31T05:46:25;99675.56;;;17.95;70.46
40730;BME280;26418;50.070;8.436;2023-07-31T05:48:51;99671.97;;;17.90;69.95
40730;BME280;26418;50.070;8.436;2023-07-31T05:51:16;99685.56;;;18.03;70.05
40730;BME280;26418;50.070;8.436;2023-07-31T05:53:42;99677.88;;;18.09;69.90
40730;BME280;26418;50.070;8.436;2023-07-31T05:56:07;99677.94;;;18.12;69.18
40730;BME280;26418;50.070;8.436;2023-07-31T05:58:33;99674.22;;;18.20;69.33
40730;BME280;26418;50.070;8.436;2023-07-31T06:00:58;99664.16;;;18.25;69.42
40730;BME280;26418;50.070;8.436;2023-07-31T06:03:24;99660.47;;;18.36;69.08
40730;BME280;26418;50.070;8.436;2023-07-31T06:05:49;99646.50;;;18.42;68.74
40730;BME280;26418;50.070;8.436;2023-07-31T06:08:15;99638.06;;;18.50;68.93
40730;BME280;26418;50.070;8.436;2023-07-31T06:10:40;99644.91;;;18.60;68.55
40730;BME280;26418;50.070;8.436;2023-07-31T06:13:06;99646.94;;;18.63;68.34
40730;BME280;26418;50.070;8.436;2023-07-31T06:15:31;99662.09;;;18.80;67.83
40730;BME280;26418;50.070;8.436;2023-07-31T06:17:57;99660.66;;;18.86;66.63
40730;BME280;26418;50.070;8.436;2023-07-31T06:20:22;99656.75;;;18.88;66.69
40730;BME280;26418;50.070;8.436;2023-07-31T06:22:48;99656.75;;;18.88;66.73
40730;BME280;26418;50.070;8.436;2023-07-31T06:25:14;99664.84;;;19.00;66.64
40730;BME280;26418;50.070;8.436;2023-07-31T06:27:39;99650.97;;;19.12;66.14
40730;BME280;26418;50.070;8.436;2023-07-31T06:30:05;99644.88;;;19.23;66.06
40730;BME280;26418;50.070;8.436;2023-07-31T06:32:32;99645.66;;;19.23;65.02
40730;BME280;26418;50.070;8.436;2023-07-31T06:34:57;99655.84;;;19.23;65.24
40730;BME280;26418;50.070;8.436;2023-07-31T06:37:23;99657.81;;;19.22;64.64
40730;BME280;26418;50.070;8.436;2023-07-31T06:39:48;99653.72;;;19.12;65.26
40730;BME280;26418;50.070;8.436;2023-07-31T06:42:14;99658.03;;;19.13;65.25
40730;BME280;26418;50.070;8.436;2023-07-31T06:44:39;99661.16;;;19.12;65.80
40730;BME280;26418;50.070;8.436;2023-07-31T06:47:05;99662.81;;;19.16;65.07
40730;BME280;26418;50.070;8.436;2023-07-31T06:49:30;99662.25;;;19.07;64.66
40730;BME280;26418;50.070;8.436;2023-07-31T06:51:56;99663.63;;;19.21;65.17
40730;BME280;26418;50.070;8.436;2023-07-31T06:54:22;99665.72;;;19.27;64.89
40730;BME280;26418;50.070;8.436;2023-07-31T06:56:47;99662.72;;;19.36;64.36
40730;BME280;26418;50.070;8.436;2023-07-31T06:59:12;99663.97;;;19.39;64.40
40730;BME280;26418;50.070;8.436;2023-07-31T07:01:38;99662.50;;;19.45;63.73
40730;BME280;26418;50.070;8.436;2023-07-31T07:04:04;99665.34;;;19.52;63.94
40730;BME280;26418;50.070;8.436;2023-07-31T07:06:29;99664.72;;;19.62;63.36
40730;BME280;26418;50.070;8.436;2023-07-31T07:08:55;99647.94;;;19.68;63.51
40730;BME280;26418;50.070;8.436;2023-07-31T07:11:20;99658.28;;;19.78;62.64
40730;BME280;26418;50.070;8.436;2023-07-31T07:13:46;99654.44;;;19.83;62.73
40730;BME280;26418;50.070;8.436;2023-07-31T07:16:11;99646.06;;;19.99;62.35
40730;BME280;26418;50.070;8.436;2023-07-31T07:18:37;99642.81;;;20.20;61.54
40730;BME280;26418;50.070;8.436;2023-07-31T07:21:42;99629.34;;;20.41;61.23
40730;BME280;26418;50.070;8.436;2023-07-31T07:24:12;99631.25;;;20.71;60.37
40730;BME280;26418;50.070;8.436;2023-07-31T07:26:40;99621.03;;;21.06;59.88
40730;BME280;26418;50.070;8.436;2023-07-31T07:29:05;99610.63;;;21.33;58.68
40730;BME280;26418;50.070;8.436;2023-07-31T07:31:33;99600.19;;;21.57;57.36
40730;BME280;26418;50.070;8.436;2023-07-31T07:33:58;99596.34;;;21.69;56.92
40730;BME280;26418;50.070;8.436;2023-07-31T07:36:24;99603.06;;;21.75;56.50
40730;BME280;26418;50.070;8.436;2023-07-31T07:38:49;99597.91;;;21.66;56.33
40730;BME280;26418;50.070;8.436;2023-07-31T07:41:15;99599.81;;;21.59;56.23
40730;BME280;26418;50.070;8.436;2023-07-31T07:43:40;99612.06;;;21.65;56.33
40730;BME280;26418;50.070;8.436;2023-07-31T07:46:06;99593.47;;;21.51;56.11
40730;BME280;26418;50.070;8.436;2023-07-31T07:48:32;99596.72;;;21.60;56.77
40730;BME280;26418;50.070;8.436;2023-07-31T07:50:57;99595.06;;;21.56;56.52
40730;BME280;26418;50.070;8.436;2023-07-31T07:53:23;99607.78;;;21.71;56.19
40730;BME280;26418;50.070;8.436;2023-07-31T07:55:48;99603.03;;;21.68;55.96
40730;BME280;26418;50.070;8.436;2023-07-31T07:58:14;99594.34;;;21.66;56.54
40730;BME280;26418;50.070;8.436;2023-07-31T08:00:39;99590.88;;;21.73;56.81
40730;BME280;26418;50.070;8.436;2023-07-31T08:03:05;99595.25;;;21.81;56.64
40730;BME280;26418;50.070;8.436;2023-07-31T08:05:31;99597.56;;;21.75;55.98
40730;BME280;26418;50.070;8.436;2023-07-31T08:07:59;99594.00;;;21.71;56.16
40730;BME280;26418;50.070;8.436;2023-07-31T08:10:25;99596.63;;;21.53;56.45
40730;BME280;26418;50.070;8.436;2023-07-31T08:12:50;99600.06;;;21.39;56.44
40730;BME280;26418;50.070;8.436;2023-07-31T08:15:16;99595.66;;;21.27;57.11
40730;BME280;26418;50.070;8.436;2023-07-31T08:17:41;99600.34;;;21.27;57.28
40730;BME280;26418;50.070;8.436;2023-07-31T08:20:07;99578.38;;;21.30;57.65
40730;BME280;26418;50.070;8.436;2023-07-31T08:22:33;99580.91;;;21.57;57.25
40730;BME280;26418;50.070;8.436;2023-07-31T08:24:59;99574.78;;;21.78;56.07
40730;BME280;26418;50.070;8.436;2023-07-31T08:27:24;99566.53;;;21.82;55.84
40730;BME280;26418;50.070;8.436;2023-07-31T08:29:52;99565.03;;;21.95;55.70
40730;BME280;26418;50.070;8.436;2023-07-31T08:32:17;99569.34;;;21.96;55.15
40730;BME280;26418;50.070;8.436;2023-07-31T08:34:43;99570.91;;;21.94;55.50
40730;BME280;26418;50.070;8.436;2023-07-31T08:37:11;99565.81;;;21.96;55.46
40730;BME280;26418;50.070;8.436;2023-07-31T08:39:37;99570.56;;;21.99;55.45
40730;BME280;26418;50.070;8.436;2023-07-31T08:42:07;99558.78;;;22.06;55.04
40730;BME280;26418;50.070;8.436;2023-07-31T08:44:34;99567.91;;;22.32;54.89
40730;BME280;26418;50.070;8.436;2023-07-31T08:47:00;99562.09;;;22.48;54.42
40730;BME280;26418;50.070;8.436;2023-07-31T08:49:27;99562.50;;;22.53;53.90
40730;BME280;26418;50.070;8.436;2023-07-31T08:51:54;99563.28;;;22.54;53.67
40730;BME280;26418;50.070;8.436;2023-07-31T08:54:20;99559.69;;;22.42;53.98
40730;BME280;26418;50.070;8.436;2023-07-31T08:56:46;99574.69;;;22.49;54.56
40730;BME280;26418;50.070;8.436;2023-07-31T08:59:14;99549.09;;;22.48;54.04
40730;BME280;26418;50.070;8.436;2023-07-31T09:01:44;99558.53;;;22.54;53.55
40730;BME280;26418;50.070;8.436;2023-07-31T09:04:14;99568.44;;;22.73;54.05
40730;BME280;26418;50.070;8.436;2023-07-31T09:06:42;99564.50;;;23.00;53.89
40730;BME280;26418;50.070;8.436;2023-07-31T09:09:08;99562.13;;;23.16;53.83
40730;BME280;26418;50.070;8.436;2023-07-31T09:11:34;99571.25;;;23.20;52.86
40730;BME280;26418;50.070;8.436;2023-07-31T09:14:00;99557.78;;;23.15;52.97
40730;BME280;26418;50.070;8.436;2023-07-31T09:16:33;99556.63;;;23.16;52.69
40730;BME280;26418;50.070;8.436;2023-07-31T09:18:59;99557.44;;;23.24;52.71
40730;BME280;26418;50.070;8.436;2023-07-31T09:21:27;99556.59;;;23.38;52.82
40730;BME280;26418;50.070;8.436;2023-07-31T09:23:54;99545.56;;;23.49;52.56
40730;BME280;26418;50.070;8.436;2023-07-31T09:26:34;99538.00;;;23.67;52.11
40730;BME280;26418;50.070;8.436;2023-07-31T09:29:01;99552.19;;;23.73;51.38
40730;BME280;26418;50.070;8.436;2023-07-31T09:31:47;99547.50;;;23.63;52.63
40730;BME280;26418;50.070;8.436;2023-07-31T09:34:12;99542.06;;;23.30;54.26
40730;BME280;26418;50.070;8.436;2023-07-31T09:36:46;99556.25;;;23.25;54.16
40730;BME280;26418;50.070;8.436;2023-07-31T09:39:13;99551.50;;;23.00;53.24
40730;BME280;26418;50.070;8.436;2023-07-31T09:41:42;99554.25;;;22.79;53.91
40730;BME280;26418;50.070;8.436;2023-07-31T09:44:09;99548.31;;;22.51;52.92
40730;BME280;26418;50.070;8.436;2023-07-31T09:46:35;99548.63;;;22.28;52.90
40730;BME280;26418;50.070;8.436;2023-07-31T09:49:07;99521.84;;;22.21;53.49
40730;BME280;26418;50.070;8.436;2023-07-31T09:51:33;99523.81;;;22.21;53.57
40730;BME280;26418;50.070;8.436;2023-07-31T09:54:04;99522.25;;;22.38;53.27
40730;BME280;26418;50.070;8.436;2023-07-31T09:56:31;99516.81;;;22.52;53.55
40730;BME280;26418;50.070;8.436;2023-07-31T09:58:58;99510.91;;;22.61;52.12
40730;BME280;26418;50.070;8.436;2023-07-31T10:01:23;99510.16;;;22.68;52.54
40730;BME280;26418;50.070;8.436;2023-07-31T10:03:49;99507.38;;;22.86;52.04
40730;BME280;26418;50.070;8.436;2023-07-31T10:06:16;99510.13;;;23.07;52.23
40730;BME280;26418;50.070;8.436;2023-07-31T10:08:45;99503.84;;;23.25;51.62
40730;BME280;26418;50.070;8.436;2023-07-31T10:11:13;99496.31;;;23.36;52.03
40730;BME280;26418;50.070;8.436;2023-07-31T10:13:40;99497.50;;;23.35;50.84
40730;BME280;26418;50.070;8.436;2023-07-31T10:16:06;99490.00;;;23.36;50.94
40730;BME280;26418;50.070;8.436;2023-07-31T10:18:33;99494.75;;;23.17;50.74
40730;BME280;26418;50.070;8.436;2023-07-31T10:20:59;99488.06;;;22.97;51.16
40730;BME280;26418;50.070;8.436;2023-07-31T10:23:25;99490.06;;;22.92;51.80
40730;BME280;26418;50.070;8.436;2023-07-31T10:25:53;99479.03;;;22.92;51.50
40730;BME280;26418;50.070;8.436;2023-07-31T10:28:21;99480.56;;;23.08;51.26
40730;BME280;26418;50.070;8.436;2023-07-31T10:30:47;99477.03;;;23.22;50.75
40730;BME280;26418;50.070;8.436;2023-07-31T10:33:15;99476.22;;;23.36;50.54
40730;BME280;26418;50.070;8.436;2023-07-31T10:35:40;99483.25;;;23.55;50.07
40730;BME280;26418;50.070;8.436;2023-07-31T10:38:12;99477.66;;;23.73;50.30
40730;BME280;26418;50.070;8.436;2023-07-31T10:40:38;99474.53;;;23.71;49.33
40730;BME280;26418;50.070;8.436;2023-07-31T10:43:05;99474.91;;;23.66;49.49
40730;BME280;26418;50.070;8.436;2023-07-31T10:45:37;99469.41;;;23.62;49.11
40730;BME280;26418;50.070;8.436;2023-07-31T10:48:12;99476.91;;;23.62;49.33
40730;BME280;26418;50.070;8.436;2023-07-31T10:50:40;99479.25;;;23.70;48.67
40730;BME280;26418;50.070;8.436;2023-07-31T10:55:50;99469.31;;;23.95;48.20
40730;BME280;26418;50.070;8.436;2023-07-31T10:58:19;99466.03;;;24.11;47.83
40730;BME280;26418;50.070;8.436;2023-07-31T11:00:46;99457.28;;;24.23;47.93
40730;BME280;26418;50.070;8.436;2023-07-31T11:10:50;99458.66;;;24.49;46.52
40730;BME280;26418;50.070;8.436;2023-07-31T11:13:16;99461.88;;;24.44;46.35
40730;BME280;26418;50.070;8.436;2023-07-31T11:15:41;99455.69;;;24.26;46.40
40730;BME280;26418;50.070;8.436;2023-07-31T11:18:07;99444.31;;;24.16;46.95
40730;BME280;26418;50.070;8.436;2023-07-31T11:20:34;99445.50;;;24.12;47.48
40730;BME280;26418;50.070;8.436;2023-07-31T11:23:01;99426.25;;;24.01;48.03
40730;BME280;26418;50.070;8.436;2023-07-31T11:25:31;99438.03;;;24.05;48.28
40730;BME280;26418;50.070;8.436;2023-07-31T11:30:30;99438.53;;;23.89;47.71
40730;BME280;26418;50.070;8.436;2023-07-31T11:32:55;99443.69;;;23.83;48.09
40730;BME280;26418;50.070;8.436;2023-07-31T11:35:21;99441.75;;;23.73;48.21
40730;BME280;26418;50.070;8.436;2023-07-31T11:37:47;99445.00;;;23.57;48.03
40730;BME280;26418;50.070;8.436;2023-07-31T11:40:14;99440.22;;;23.65;48.70
40730;BME280;26418;50.070;8.436;2023-07-31T11:42:40;99427.97;;;23.69;48.79
40730;BME280;26418;50.070;8.436;2023-07-31T11:45:07;99427.94;;;23.73;48.23
40730;BME280;26418;50.070;8.436;2023-07-31T11:47:34;99440.13;;;23.86;48.55
40730;BME280;26418;50.070;8.436;2023-07-31T11:50:01;99431.00;;;23.97;47.86
40730;BME280;26418;50.070;8.436;2023-07-31T11:52:30;99421.47;;;24.09;47.38
40730;BME280;26418;50.070;8.436;2023-07-31T11:54:57;99432.09;;;24.14;47.64
40730;BME280;26418;50.070;8.436;2023-07-31T11:57:25;99422.25;;;24.09;47.75
40730;BME280;26418;50.070;8.436;2023-07-31T11:59:51;99421.53;;;23.94;47.72
40730;BME280;26418;50.070;8.436;2023-07-31T12:02:18;99417.69;;;23.77;48.01
40730;BME280;26418;50.070;8.436;2023-07-31T12:04:45;99431.97;;;23.58;48.31
40730;BME280;26418;50.070;8.436;2023-07-31T12:07:10;99431.59;;;23.48;49.22
40730;BME280;26418;50.070;8.436;2023-07-31T12:09:38;99426.53;;;23.36;50.03
40730;BME280;26418;50.070;8.436;2023-07-31T12:12:08;99425.78;;;23.28;49.87
40730;BME280;26418;50.070;8.436;2023-07-31T12:14:34;99421.44;;;23.16;49.81
40730;BME280;26418;50.070;8.436;2023-07-31T12:17:04;99413.59;;;23.11;50.28
40730;BME280;26418;50.070;8.436;2023-07-31T12:19:30;99409.66;;;23.12;50.44
40730;BME280;26418;50.070;8.436;2023-07-31T12:21:56;99412.41;;;23.05;50.41
40730;BME280;26418;50.070;8.436;2023-07-31T12:24:21;99404.53;;;23.03;50.46
40730;BME280;26418;50.070;8.436;2023-07-31T12:26:48;99403.41;;;22.90;50.29
40730;BME280;26418;50.070;8.436;2023-07-31T12:29:14;99397.09;;;22.82;51.02
40730;BME280;26418;50.070;8.436;2023-07-31T12:31:41;99391.19;;;22.76;50.66
40730;BME280;26418;50.070;8.436;2023-07-31T12:34:18;99400.25;;;22.81;50.72
40730;BME280;26418;50.070;8.436;2023-07-31T12:36:44;99394.34;;;22.79;50.25
40730;BME280;26418;50.070;8.436;2023-07-31T12:39:10;99392.78;;;22.77;51.09
40730;BME280;26418;50.070;8.436;2023-07-31T12:41:36;99388.78;;;22.97;50.46
40730;BME280;26418;50.070;8.436;2023-07-31T12:44:02;99371.03;;;23.19;50.11
40730;BME280;26418;50.070;8.436;2023-07-31T12:46:28;99374.03;;;23.54;49.27
40730;BME280;26418;50.070;8.436;2023-07-31T12:48:54;99362.81;;;23.83;48.70
40730;BME280;26418;50.070;8.436;2023-07-31T12:51:20;99353.13;;;24.16;48.16
40730;BME280;26418;50.070;8.436;2023-07-31T12:53:46;99352.78;;;24.56;46.94
40730;BME280;26418;50.070;8.436;2023-07-31T12:56:11;99342.06;;;24.62;46.00
40730;BME280;26418;50.070;8.436;2023-07-31T12:58:37;99340.66;;;24.85;45.80
40730;BME280;26418;50.070;8.436;2023-07-31T13:01:03;99342.00;;;25.04;45.26
40730;BME280;26418;50.070;8.436;2023-07-31T13:03:28;99339.19;;;25.07;45.25
40730;BME280;26418;50.070;8.436;2023-07-31T13:05:54;99340.41;;;25.06;45.83
40730;BME280;26418;50.070;8.436;2023-07-31T13:08:20;99352.69;;;25.02;45.55
40730;BME280;26418;50.070;8.436;2023-07-31T13:10:46;99336.09;;;25.05;45.37
40730;BME280;26418;50.070;8.436;2023-07-31T13:13:11;99326.03;;;25.19;45.23
40730;BME280;26418;50.070;8.436;2023-07-31T13:15:37;99344.94;;;25.24;45.53
40730;BME280;26418;50.070;8.436;2023-07-31T13:18:03;99340.78;;;25.43;45.05